sensor_id;sensor_type;location;lat;lon;timestamp;P1;durP1;ratioP1;P2;durP2;ratioP2
75216;SDS011;63800;51.972;5.682;2023-05-02T00:01:58;26.95;;;12.45;;
75216;SDS011;63800;51.972;5.682;2023-05-02T00:04:23;23.35;;;12.48;;
75216;SDS011;63800;51.972;5.682;2023-05-02T00:06:52;26.35;;;11.35;;
75216;SDS011;63800;51.972;5.682;2023-05-02T00:09:17;26.10;;;12.60;;
75216;SDS011;63800;51.972;5.682;2023-05-02T00:11:43;27.27;;;12.90;;
75216;SDS011;63800;51.972;5.682;2023-05-02T00:14:08;27.23;;;12.25;;
75216;SDS011;63800;51.972;5.682;2023-05-02T00:16:34;22.73;;;11.82;;
75216;SDS011;63800;51.972;5.682;2023-05-02T00:19:00;23.17;;;12.23;;
75216;SDS011;63800;51.972;5.682;2023-05-02T00:21:25;29.05;;;14.13;;
75216;SDS011;63800;51.972;5.682;2023-05-02T00:23:53;28.65;;;12.48;;
75216;SDS011;63800;51.972;5.682;2023-05-02T00:26:21;31.27;;;12.63;;
75216;SDS011;63800;51.972;5.682;2023-05-02T00:28:47;28.38;;;13.23;;
75216;SDS011;63800;51.972;5.682;2023-05-02T00:31:13;30.17;;;14.20;;
75216;SDS011;63800;51.972;5.682;2023-05-02T00:33:39;35.25;;;15.85;;
75216;SDS011;63800;51.972;5.682;2023-05-02T00:36:10;35.13;;;16.50;;
75216;SDS011;63800;51.972;5.682;2023-05-02T00:38:38;37.67;;;16.50;;
75216;SDS011;63800;51.972;5.682;2023-05-02T00:41:03;36.92;;;17.20;;
75216;SDS011;63800;51.972;5.682;2023-05-02T00:43:29;35.25;;;16.42;;
75216;SDS011;63800;51.972;5.682;2023-05-02T00:45:55;37.35;;;17.90;;
75216;SDS011;63800;51.972;5.682;2023-05-02T00:48:20;40.80;;;17.35;;
75216;SDS011;63800;51.972;5.682;2023-05-02T00:50:47;39.03;;;18.02;;
75216;SDS011;63800;51.972;5.682;2023-05-02T00:53:12;38.78;;;17.65;;
75216;SDS011;63800;51.972;5.682;2023-05-02T00:55:39;42.20;;;18.17;;
75216;SDS011;63800;51.972;5.682;2023-05-02T00:58:07;38.10;;;17.80;;
75216;SDS011;63800;51.972;5.682;2023-05-02T01:00:45;42.42;;;19.73;;
75216;SDS011;63800;51.972;5.682;2023-05-02T01:06:04;38.45;;;17.55;;
75216;SDS011;63800;51.972;5.682;2023-05-02T01:11:43;40.70;;;18.65;;
75216;SDS011;63800;51.972;5.682;2023-05-02T01:14:28;41.20;;;18.38;;
75216;SDS011;63800;51.972;5.682;2023-05-02T01:16:57;39.45;;;17.90;;
75216;SDS011;63800;51.972;5.682;2023-05-02T01:19:31;38.65;;;17.60;;
75216;SDS011;63800;51.972;5.682;2023-05-02T01:22:01;37.25;;;17.67;;
75216;SDS011;63800;51.972;5.682;2023-05-02T01:24:33;38.17;;;16.80;;
75216;SDS011;63800;51.972;5.682;2023-05-02T01:27:14;33.58;;;16.60;;
75216;SDS011;63800;51.972;5.682;2023-05-02T01:29:47;34.58;;;15.98;;
75216;SDS011;63800;51.972;5.682;2023-05-02T01:32:15;34.60;;;15.25;;
75216;SDS011;63800;51.972;5.682;2023-05-02T01:34:42;33.47;;;15.82;;
75216;SDS011;63800;51.972;5.682;2023-05-02T01:37:11;29.73;;;14.15;;
75216;SDS011;63800;51.972;5.682;2023-05-02T01:39:39;37.85;;;14.50;;
75216;SDS011;63800;51.972;5.682;2023-05-02T01:42:06;31.52;;;14.20;;
75216;SDS011;63800;51.972;5.682;2023-05-02T01:44:32;24.92;;;12.65;;
75216;SDS011;63800;51.972;5.682;2023-05-02T01:47:00;27.30;;;12.48;;
75216;SDS011;63800;51.972;5.682;2023-05-02T01:49:29;22.48;;;11.27;;
75216;SDS011;63800;51.972;5.682;2023-05-02T01:51:56;21.13;;;10.38;;
75216;SDS011;63800;51.972;5.682;2023-05-02T01:54:30;18.55;;;9.43;;
75216;SDS011;63800;51.972;5.682;2023-05-02T01:56:59;20.17;;;8.50;;
75216;SDS011;63800;51.972;5.682;2023-05-02T01:59:27;14.57;;;8.10;;
75216;SDS011;63800;51.972;5.682;2023-05-02T02:01:56;18.67;;;8.10;;
75216;SDS011;63800;51.972;5.682;2023-05-02T02:04:25;15.38;;;7.60;;
75216;SDS011;63800;51.972;5.682;2023-05-02T02:07:05;14.20;;;7.63;;
75216;SDS011;63800;51.972;5.682;2023-05-02T02:09:32;11.45;;;6.75;;
75216;SDS011;63800;51.972;5.682;2023-05-02T02:14:38;10.13;;;6.10;;
75216;SDS011;63800;51.972;5.682;2023-05-02T02:17:21;10.18;;;4.80;;
75216;SDS011;63800;51.972;5.682;2023-05-02T02:19:51;9.13;;;5.30;;
75216;SDS011;63800;51.972;5.682;2023-05-02T02:22:19;9.48;;;4.85;;
75216;SDS011;63800;51.972;5.682;2023-05-02T02:24:47;11.18;;;4.95;;
75216;SDS011;63800;51.972;5.682;2023-05-02T02:27:13;10.57;;;5.20;;
75216;SDS011;63800;51.972;5.682;2023-05-02T02:29:39;9.38;;;4.45;;
75216;SDS011;63800;51.972;5.682;2023-05-02T02:32:04;7.85;;;4.05;;
75216;SDS011;63800;51.972;5.682;2023-05-02T02:34:30;12.50;;;4.40;;
75216;SDS011;63800;51.972;5.682;2023-05-02T02:36:56;9.63;;;3.78;;
75216;SDS011;63800;51.972;5.682;2023-05-02T02:45:16;6.43;;;3.45;;
75216;SDS011;63800;51.972;5.682;2023-05-02T02:53:08;5.85;;;3.40;;
75216;SDS011;63800;51.972;5.682;2023-05-02T02:55:53;9.52;;;3.33;;
75216;SDS011;63800;51.972;5.682;2023-05-02T02:59:11;7.47;;;3.28;;
75216;SDS011;63800;51.972;5.682;2023-05-02T03:01:30;10.20;;;3.10;;
75216;SDS011;63800;51.972;5.682;2023-05-02T03:03:58;7.82;;;3.30;;
75216;SDS011;63800;51.972;5.682;2023-05-02T03:06:24;8.55;;;2.55;;
75216;SDS011;63800;51.972;5.682;2023-05-02T03:08:51;9.75;;;2.75;;
75216;SDS011;63800;51.972;5.682;2023-05-02T03:11:16;9.85;;;3.00;;
75216;SDS011;63800;51.972;5.682;2023-05-02T03:13:42;5.22;;;2.78;;
75216;SDS011;63800;51.972;5.682;2023-05-02T03:18:46;8.77;;;2.95;;
75216;SDS011;63800;51.972;5.682;2023-05-02T03:21:11;9.45;;;3.10;;
75216;SDS011;63800;51.972;5.682;2023-05-02T03:23:37;9.07;;;3.08;;
75216;SDS011;63800;51.972;5.682;2023-05-02T03:26:02;6.28;;;2.65;;
75216;SDS011;63800;51.972;5.682;2023-05-02T03:28:28;8.40;;;2.72;;
75216;SDS011;63800;51.972;5.682;2023-05-02T03:30:53;7.95;;;2.42;;
75216;SDS011;63800;51.972;5.682;2023-05-02T03:33:18;6.72;;;2.30;;
75216;SDS011;63800;51.972;5.682;2023-05-02T03:35:44;6.25;;;2.05;;
75216;SDS011;63800;51.972;5.682;2023-05-02T03:38:10;4.90;;;2.33;;
75216;SDS011;63800;51.972;5.682;2023-05-02T03:40:35;6.05;;;2.45;;
75216;SDS011;63800;51.972;5.682;2023-05-02T03:43:01;5.05;;;1.90;;
75216;SDS011;63800;51.972;5.682;2023-05-02T03:45:26;4.82;;;2.10;;
75216;SDS011;63800;51.972;5.682;2023-05-02T03:47:51;6.28;;;2.20;;
75216;SDS011;63800;51.972;5.682;2023-05-02T03:50:17;4.35;;;1.80;;
75216;SDS011;63800;51.972;5.682;2023-05-02T03:52:43;6.32;;;2.28;;
75216;SDS011;63800;51.972;5.682;2023-05-02T03:55:08;4.90;;;2.38;;
75216;SDS011;63800;51.972;5.682;2023-05-02T03:57:34;4.72;;;2.38;;
75216;SDS011;63800;51.972;5.682;2023-05-02T04:00:00;6.00;;;2.65;;
75216;SDS011;63800;51.972;5.682;2023-05-02T04:02:25;5.05;;;2.08;;
75216;SDS011;63800;51.972;5.682;2023-05-02T04:04:50;10.07;;;2.50;;
75216;SDS011;63800;51.972;5.682;2023-05-02T04:07:16;6.38;;;2.30;;
75216;SDS011;63800;51.972;5.682;2023-05-02T04:09:43;3.60;;;2.00;;
75216;SDS011;63800;51.972;5.682;2023-05-02T04:12:09;5.55;;;2.03;;
75216;SDS011;63800;51.972;5.682;2023-05-02T04:14:34;5.68;;;2.22;;
75216;SDS011;63800;51.972;5.682;2023-05-02T04:17:00;6.10;;;2.38;;
75216;SDS011;63800;51.972;5.682;2023-05-02T04:19:25;5.57;;;2.25;;
75216;SDS011;63800;51.972;5.682;2023-05-02T04:21:51;5.47;;;2.25;;
75216;SDS011;63800;51.972;5.682;2023-05-02T04:24:17;6.47;;;2.28;;
75216;SDS011;63800;51.972;5.682;2023-05-02T04:26:43;5.53;;;2.42;;
75216;SDS011;63800;51.972;5.682;2023-05-02T04:29:08;4.85;;;2.20;;
75216;SDS011;63800;51.972;5.682;2023-05-02T04:31:34;12.02;;;2.47;;
75216;SDS011;63800;51.972;5.682;2023-05-02T04:34:00;5.43;;;2.22;;
75216;SDS011;63800;51.972;5.682;2023-05-02T04:36:25;5.00;;;2.40;;
75216;SDS011;63800;51.972;5.682;2023-05-02T04:38:52;5.05;;;2.28;;
75216;SDS011;63800;51.972;5.682;2023-05-02T04:41:18;8.95;;;2.70;;
75216;SDS011;63800;51.972;5.682;2023-05-02T04:43:43;7.47;;;2.40;;
75216;SDS011;63800;51.972;5.682;2023-05-02T04:46:09;6.18;;;2.15;;
75216;SDS011;63800;51.972;5.682;2023-05-02T04:48:34;3.75;;;1.85;;
75216;SDS011;63800;51.972;5.682;2023-05-02T04:51:00;4.68;;;2.50;;
75216;SDS011;63800;51.972;5.682;2023-05-02T04:53:25;9.10;;;2.15;;
75216;SDS011;63800;51.972;5.682;2023-05-02T04:55:51;5.10;;;2.25;;
75216;SDS011;63800;51.972;5.682;2023-05-02T04:58:16;8.52;;;2.40;;
75216;SDS011;63800;51.972;5.682;2023-05-02T05:00:42;6.53;;;2.25;;
75216;SDS011;63800;51.972;5.682;2023-05-02T05:03:08;7.20;;;2.00;;
75216;SDS011;63800;51.972;5.682;2023-05-02T05:05:33;5.43;;;2.15;;
75216;SDS011;63800;51.972;5.682;2023-05-02T05:07:59;5.55;;;2.00;;
75216;SDS011;63800;51.972;5.682;2023-05-02T05:10:24;3.90;;;2.13;;
75216;SDS011;63800;51.972;5.682;2023-05-02T05:12:50;4.97;;;2.28;;
75216;SDS011;63800;51.972;5.682;2023-05-02T05:15:17;4.05;;;1.92;;
75216;SDS011;63800;51.972;5.682;2023-05-02T05:17:46;7.28;;;1.83;;
75216;SDS011;63800;51.972;5.682;2023-05-02T05:20:11;7.13;;;2.65;;
75216;SDS011;63800;51.972;5.682;2023-05-02T05:22:40;6.60;;;2.17;;
75216;SDS011;63800;51.972;5.682;2023-05-02T05:25:09;7.47;;;2.35;;
75216;SDS011;63800;51.972;5.682;2023-05-02T05:27:35;9.50;;;2.15;;
75216;SDS011;63800;51.972;5.682;2023-05-02T05:30:02;5.30;;;2.15;;
75216;SDS011;63800;51.972;5.682;2023-05-02T05:32:28;4.97;;;2.53;;
75216;SDS011;63800;51.972;5.682;2023-05-02T05:34:54;5.13;;;2.25;;
75216;SDS011;63800;51.972;5.682;2023-05-02T05:37:19;5.18;;;1.90;;
75216;SDS011;63800;51.972;5.682;2023-05-02T05:39:45;5.15;;;2.10;;
75216;SDS011;63800;51.972;5.682;2023-05-02T05:42:11;5.43;;;1.83;;
75216;SDS011;63800;51.972;5.682;2023-05-02T05:44:37;3.53;;;1.70;;
75216;SDS011;63800;51.972;5.682;2023-05-02T05:47:02;5.22;;;1.60;;
75216;SDS011;63800;51.972;5.682;2023-05-02T05:49:28;7.10;;;2.20;;
75216;SDS011;63800;51.972;5.682;2023-05-02T05:51:53;5.20;;;2.00;;
75216;SDS011;63800;51.972;5.682;2023-05-02T05:54:19;5.70;;;1.92;;
75216;SDS011;63800;51.972;5.682;2023-05-02T05:56:44;4.88;;;1.92;;
75216;SDS011;63800;51.972;5.682;2023-05-02T05:59:10;7.22;;;2.47;;
75216;SDS011;63800;51.972;5.682;2023-05-02T06:01:35;6.65;;;2.13;;
75216;SDS011;63800;51.972;5.682;2023-05-02T06:04:02;6.35;;;2.40;;
75216;SDS011;63800;51.972;5.682;2023-05-02T06:06:29;9.52;;;2.78;;
75216;SDS011;63800;51.972;5.682;2023-05-02T06:08:58;5.88;;;2.90;;
75216;SDS011;63800;51.972;5.682;2023-05-02T06:11:24;6.57;;;2.65;;
75216;SDS011;63800;51.972;5.682;2023-05-02T06:13:50;9.98;;;2.88;;
75216;SDS011;63800;51.972;5.682;2023-05-02T06:16:16;11.43;;;3.45;;
75216;SDS011;63800;51.972;5.682;2023-05-02T06:18:42;9.82;;;3.30;;
75216;SDS011;63800;51.972;5.682;2023-05-02T06:21:08;6.18;;;2.90;;
75216;SDS011;63800;51.972;5.682;2023-05-02T06:23:33;5.40;;;2.88;;
75216;SDS011;63800;51.972;5.682;2023-05-02T06:25:59;6.93;;;2.88;;
75216;SDS011;63800;51.972;5.682;2023-05-02T06:28:28;9.50;;;3.10;;
75216;SDS011;63800;51.972;5.682;2023-05-02T06:30:58;9.70;;;3.50;;
75216;SDS011;63800;51.972;5.682;2023-05-02T06:33:25;7.50;;;3.30;;
75216;SDS011;63800;51.972;5.682;2023-05-02T06:35:53;7.70;;;3.10;;
75216;SDS011;63800;51.972;5.682;2023-05-02T06:38:19;9.93;;;2.90;;
75216;SDS011;63800;51.972;5.682;2023-05-02T06:40:45;8.25;;;2.88;;
75216;SDS011;63800;51.972;5.682;2023-05-02T06:43:11;7.07;;;3.00;;
75216;SDS011;63800;51.972;5.682;2023-05-02T06:45:37;8.70;;;2.90;;
75216;SDS011;63800;51.972;5.682;2023-05-02T06:48:03;10.43;;;2.75;;
75216;SDS011;63800;51.972;5.682;2023-05-02T06:50:28;7.80;;;2.95;;
75216;SDS011;63800;51.972;5.682;2023-05-02T06:52:54;11.23;;;3.28;;
75216;SDS011;63800;51.972;5.682;2023-05-02T06:55:20;8.40;;;2.67;;
75216;SDS011;63800;51.972;5.682;2023-05-02T06:57:47;9.82;;;2.67;;
75216;SDS011;63800;51.972;5.682;2023-05-02T07:00:13;5.60;;;2.53;;
75216;SDS011;63800;51.972;5.682;2023-05-02T07:02:40;3.72;;;2.20;;
75216;SDS011;63800;51.972;5.682;2023-05-02T07:05:05;6.60;;;2.50;;
75216;SDS011;63800;51.972;5.682;2023-05-02T07:07:31;3.70;;;1.98;;
75216;SDS011;63800;51.972;5.682;2023-05-02T07:09:56;4.50;;;2.08;;
75216;SDS011;63800;51.972;5.682;2023-05-02T07:12:22;6.72;;;2.20;;
75216;SDS011;63800;51.972;5.682;2023-05-02T07:14:47;7.75;;;2.30;;
75216;SDS011;63800;51.972;5.682;2023-05-02T07:17:13;7.32;;;2.20;;
75216;SDS011;63800;51.972;5.682;2023-05-02T07:19:39;4.00;;;2.28;;
75216;SDS011;63800;51.972;5.682;2023-05-02T07:22:05;7.05;;;2.85;;
75216;SDS011;63800;51.972;5.682;2023-05-02T07:24:31;6.07;;;2.97;;
75216;SDS011;63800;51.972;5.682;2023-05-02T07:26:56;5.07;;;2.22;;
75216;SDS011;63800;51.972;5.682;2023-05-02T07:29:22;4.60;;;2.05;;
75216;SDS011;63800;51.972;5.682;2023-05-02T07:31:47;3.72;;;1.80;;
75216;SDS011;63800;51.972;5.682;2023-05-02T07:34:13;7.85;;;2.60;;
75216;SDS011;63800;51.972;5.682;2023-05-02T07:36:38;5.82;;;2.30;;
75216;SDS011;63800;51.972;5.682;2023-05-02T07:39:04;5.45;;;2.30;;
75216;SDS011;63800;51.972;5.682;2023-05-02T07:41:29;10.88;;;2.70;;
75216;SDS011;63800;51.972;5.682;2023-05-02T07:43:55;5.95;;;1.90;;
75216;SDS011;63800;51.972;5.682;2023-05-02T07:46:21;5.25;;;2.40;;
75216;SDS011;63800;51.972;5.682;2023-05-02T07:48:47;10.07;;;2.63;;
75216;SDS011;63800;51.972;5.682;2023-05-02T07:51:13;7.45;;;2.13;;
75216;SDS011;63800;51.972;5.682;2023-05-02T07:53:38;9.48;;;2.67;;
75216;SDS011;63800;51.972;5.682;2023-05-02T07:56:04;6.53;;;2.10;;
75216;SDS011;63800;51.972;5.682;2023-05-02T07:58:33;6.57;;;2.40;;
75216;SDS011;63800;51.972;5.682;2023-05-02T08:01:00;6.13;;;2.25;;
75216;SDS011;63800;51.972;5.682;2023-05-02T08:03:25;6.90;;;2.55;;
75216;SDS011;63800;51.972;5.682;2023-05-02T08:05:52;10.18;;;3.45;;
75216;SDS011;63800;51.972;5.682;2023-05-02T08:08:17;9.68;;;2.70;;
75216;SDS011;63800;51.972;5.682;2023-05-02T08:10:43;6.25;;;2.45;;
75216;SDS011;63800;51.972;5.682;2023-05-02T08:13:10;6.55;;;2.60;;
75216;SDS011;63800;51.972;5.682;2023-05-02T08:15:36;10.98;;;2.65;;
75216;SDS011;63800;51.972;5.682;2023-05-02T08:18:01;8.88;;;2.97;;
75216;SDS011;63800;51.972;5.682;2023-05-02T08:20:27;7.65;;;2.38;;
75216;SDS011;63800;51.972;5.682;2023-05-02T08:22:52;3.92;;;2.13;;
75216;SDS011;63800;51.972;5.682;2023-05-02T08:25:17;4.50;;;1.90;;
75216;SDS011;63800;51.972;5.682;2023-05-02T08:27:43;6.15;;;2.33;;
75216;SDS011;63800;51.972;5.682;2023-05-02T08:30:09;4.88;;;1.92;;
75216;SDS011;63800;51.972;5.682;2023-05-02T08:32:35;3.17;;;1.63;;
75216;SDS011;63800;51.972;5.682;2023-05-02T08:35:01;6.50;;;2.00;;
75216;SDS011;63800;51.972;5.682;2023-05-02T08:37:27;8.95;;;2.50;;
75216;SDS011;63800;51.972;5.682;2023-05-02T08:39:52;4.95;;;2.20;;
75216;SDS011;63800;51.972;5.682;2023-05-02T08:42:18;4.82;;;1.60;;
75216;SDS011;63800;51.972;5.682;2023-05-02T08:44:47;5.30;;;2.00;;
75216;SDS011;63800;51.972;5.682;2023-05-02T08:47:13;4.38;;;1.73;;
75216;SDS011;63800;51.972;5.682;2023-05-02T08:49:39;5.22;;;1.88;;
75216;SDS011;63800;51.972;5.682;2023-05-02T08:52:06;4.05;;;1.70;;
75216;SDS011;63800;51.972;5.682;2023-05-02T08:54:36;4.65;;;1.52;;
75216;SDS011;63800;51.972;5.682;2023-05-02T08:57:03;4.30;;;1.60;;
75216;SDS011;63800;51.972;5.682;2023-05-02T08:59:29;5.93;;;1.80;;
75216;SDS011;63800;51.972;5.682;2023-05-02T09:02:00;2.28;;;1.52;;
75216;SDS011;63800;51.972;5.682;2023-05-02T09:04:30;4.70;;;1.90;;
75216;SDS011;63800;51.972;5.682;2023-05-02T09:06:59;6.20;;;2.10;;
75216;SDS011;63800;51.972;5.682;2023-05-02T09:09:25;6.25;;;2.10;;
75216;SDS011;63800;51.972;5.682;2023-05-02T09:11:51;3.47;;;2.00;;
75216;SDS011;63800;51.972;5.682;2023-05-02T09:14:17;5.78;;;2.25;;
75216;SDS011;63800;51.972;5.682;2023-05-02T09:16:43;4.28;;;2.00;;
75216;SDS011;63800;51.972;5.682;2023-05-02T09:19:08;3.22;;;1.90;;
75216;SDS011;63800;51.972;5.682;2023-05-02T09:21:35;5.78;;;2.28;;
75216;SDS011;63800;51.972;5.682;2023-05-02T09:24:13;3.53;;;1.98;;
75216;SDS011;63800;51.972;5.682;2023-05-02T09:26:41;6.15;;;2.33;;
75216;SDS011;63800;51.972;5.682;2023-05-02T09:29:07;4.10;;;1.95;;
75216;SDS011;63800;51.972;5.682;2023-05-02T09:31:33;5.30;;;1.90;;
75216;SDS011;63800;51.972;5.682;2023-05-02T09:34:09;7.25;;;2.42;;
75216;SDS011;63800;51.972;5.682;2023-05-02T09:36:43;4.90;;;1.75;;
75216;SDS011;63800;51.972;5.682;2023-05-02T09:39:19;6.03;;;1.83;;
75216;SDS011;63800;51.972;5.682;2023-05-02T09:41:46;4.82;;;1.92;;
75216;SDS011;63800;51.972;5.682;2023-05-02T09:44:19;4.38;;;2.17;;
75216;SDS011;63800;51.972;5.682;2023-05-02T09:46:47;4.50;;;2.25;;
75216;SDS011;63800;51.972;5.682;2023-05-02T09:49:14;3.50;;;2.10;;
75216;SDS011;63800;51.972;5.682;2023-05-02T09:51:42;3.67;;;1.73;;
75216;SDS011;63800;51.972;5.682;2023-05-02T09:54:08;3.53;;;1.90;;
75216;SDS011;63800;51.972;5.682;2023-05-02T09:56:53;3.83;;;1.80;;
75216;SDS011;63800;51.972;5.682;2023-05-02T09:59:20;3.38;;;1.80;;
75216;SDS011;63800;51.972;5.682;2023-05-02T10:01:53;5.13;;;2.00;;
75216;SDS011;63800;51.972;5.682;2023-05-02T10:04:23;2.70;;;1.63;;
75216;SDS011;63800;51.972;5.682;2023-05-02T10:06:50;4.82;;;2.20;;
75216;SDS011;63800;51.972;5.682;2023-05-02T10:09:16;4.93;;;1.95;;
75216;SDS011;63800;51.972;5.682;2023-05-02T10:11:44;3.20;;;1.98;;
75216;SDS011;63800;51.972;5.682;2023-05-02T10:14:11;4.13;;;1.90;;
75216;SDS011;63800;51.972;5.682;2023-05-02T10:16:37;4.97;;;1.85;;
75216;SDS011;63800;51.972;5.682;2023-05-02T10:19:11;3.97;;;2.15;;
75216;SDS011;63800;51.972;5.682;2023-05-02T10:21:43;3.30;;;2.25;;
75216;SDS011;63800;51.972;5.682;2023-05-02T10:24:09;4.82;;;2.03;;
75216;SDS011;63800;51.972;5.682;2023-05-02T10:26:37;5.22;;;2.30;;
75216;SDS011;63800;51.972;5.682;2023-05-02T10:31:56;5.07;;;2.10;;
75216;SDS011;63800;51.972;5.682;2023-05-02T10:34:24;5.28;;;2.00;;
75216;SDS011;63800;51.972;5.682;2023-05-02T10:36:51;4.72;;;2.10;;
75216;SDS011;63800;51.972;5.682;2023-05-02T10:39:18;3.50;;;2.20;;
75216;SDS011;63800;51.972;5.682;2023-05-02T10:41:48;5.75;;;2.33;;
75216;SDS011;63800;51.972;5.682;2023-05-02T10:44:20;4.50;;;2.28;;
75216;SDS011;63800;51.972;5.682;2023-05-02T10:46:56;5.45;;;2.40;;
75216;SDS011;63800;51.972;5.682;2023-05-02T10:49:22;4.40;;;2.30;;
75216;SDS011;63800;51.972;5.682;2023-05-02T10:51:51;3.25;;;2.00;;
75216;SDS011;63800;51.972;5.682;2023-05-02T10:57:01;5.93;;;2.10;;
75216;SDS011;63800;51.972;5.682;2023-05-02T10:59:33;4.03;;;2.33;;
75216;SDS011;63800;51.972;5.682;2023-05-02T11:02:00;4.38;;;2.22;;
75216;SDS011;63800;51.972;5.682;2023-05-02T11:07:27;4.78;;;2.22;;
75216;SDS011;63800;51.972;5.682;2023-05-02T11:12:48;7.00;;;2.60;;
75216;SDS011;63800;51.972;5.682;2023-05-02T11:18:07;6.70;;;2.63;;
75216;SDS011;63800;51.972;5.682;2023-05-02T11:20:39;4.95;;;2.30;;
75216;SDS011;63800;51.972;5.682;2023-05-02T11:25:38;7.05;;;2.70;;
75216;SDS011;63800;51.972;5.682;2023-05-02T11:28:06;3.58;;;2.50;;
75216;SDS011;63800;51.972;5.682;2023-05-02T11:30:52;4.90;;;2.35;;
75216;SDS011;63800;51.972;5.682;2023-05-02T11:33:17;4.57;;;2.55;;
75216;SDS011;63800;51.972;5.682;2023-05-02T11:35:44;6.57;;;2.75;;
75216;SDS011;63800;51.972;5.682;2023-05-02T11:38:11;9.00;;;2.30;;
75216;SDS011;63800;51.972;5.682;2023-05-02T11:40:38;3.50;;;2.10;;
75216;SDS011;63800;51.972;5.682;2023-05-02T11:43:14;4.32;;;2.10;;
75216;SDS011;63800;51.972;5.682;2023-05-02T11:45:43;5.65;;;2.75;;
75216;SDS011;63800;51.972;5.682;2023-05-02T11:48:10;3.75;;;2.70;;
75216;SDS011;63800;51.972;5.682;2023-05-02T11:50:45;4.30;;;2.33;;
75216;SDS011;63800;51.972;5.682;2023-05-02T11:53:13;7.00;;;2.75;;
75216;SDS011;63800;51.972;5.682;2023-05-02T11:55:43;4.75;;;2.70;;
75216;SDS011;63800;51.972;5.682;2023-05-02T11:58:17;7.15;;;2.90;;
75216;SDS011;63800;51.972;5.682;2023-05-02T12:00:45;6.80;;;2.70;;
75216;SDS011;63800;51.972;5.682;2023-05-02T12:03:26;6.35;;;3.05;;
75216;SDS011;63800;51.972;5.682;2023-05-02T12:05:55;6.30;;;3.30;;
75216;SDS011;63800;51.972;5.682;2023-05-02T12:08:25;6.95;;;2.83;;
75216;SDS011;63800;51.972;5.682;2023-05-02T12:10:53;7.65;;;3.00;;
75216;SDS011;63800;51.972;5.682;2023-05-02T12:13:20;4.60;;;3.03;;
75216;SDS011;63800;51.972;5.682;2023-05-02T12:15:47;4.55;;;2.65;;
75216;SDS011;63800;51.972;5.682;2023-05-02T12:18:14;6.75;;;2.85;;
75216;SDS011;63800;51.972;5.682;2023-05-02T12:20:41;4.57;;;2.95;;
75216;SDS011;63800;51.972;5.682;2023-05-02T12:23:07;6.10;;;2.50;;
75216;SDS011;63800;51.972;5.682;2023-05-02T12:25:38;3.70;;;2.35;;
75216;SDS011;63800;51.972;5.682;2023-05-02T12:28:04;5.40;;;3.05;;
75216;SDS011;63800;51.972;5.682;2023-05-02T12:30:30;7.47;;;3.13;;
75216;SDS011;63800;51.972;5.682;2023-05-02T12:32:57;5.70;;;2.80;;
75216;SDS011;63800;51.972;5.682;2023-05-02T12:35:25;8.43;;;3.72;;
75216;SDS011;63800;51.972;5.682;2023-05-02T12:37:51;6.97;;;2.92;;
75216;SDS011;63800;51.972;5.682;2023-05-02T12:40:18;6.55;;;3.10;;
75216;SDS011;63800;51.972;5.682;2023-05-02T12:42:56;7.28;;;2.83;;
75216;SDS011;63800;51.972;5.682;2023-05-02T12:45:23;7.47;;;2.92;;
75216;SDS011;63800;51.972;5.682;2023-05-02T12:47:49;8.65;;;3.35;;
75216;SDS011;63800;51.972;5.682;2023-05-02T12:50:15;6.45;;;3.15;;
75216;SDS011;63800;51.972;5.682;2023-05-02T12:52:50;6.20;;;3.20;;
75216;SDS011;63800;51.972;5.682;2023-05-02T12:55:23;5.88;;;3.90;;
75216;SDS011;63800;51.972;5.682;2023-05-02T12:57:58;7.35;;;3.30;;
75216;SDS011;63800;51.972;5.682;2023-05-02T13:00:25;6.13;;;3.28;;
75216;SDS011;63800;51.972;5.682;2023-05-02T13:02:50;6.75;;;3.00;;
75216;SDS011;63800;51.972;5.682;2023-05-02T13:05:17;9.82;;;3.60;;
75216;SDS011;63800;51.972;5.682;2023-05-02T13:07:43;6.88;;;3.60;;
75216;SDS011;63800;51.972;5.682;2023-05-02T13:10:09;6.57;;;3.35;;
75216;SDS011;63800;51.972;5.682;2023-05-02T13:12:41;7.80;;;3.47;;
75216;SDS011;63800;51.972;5.682;2023-05-02T13:15:07;8.63;;;3.75;;
75216;SDS011;63800;51.972;5.682;2023-05-02T13:17:33;5.93;;;3.47;;
75216;SDS011;63800;51.972;5.682;2023-05-02T13:19:59;6.55;;;2.80;;
75216;SDS011;63800;51.972;5.682;2023-05-02T13:22:25;4.65;;;2.53;;
75216;SDS011;63800;51.972;5.682;2023-05-02T13:24:51;7.25;;;3.58;;
75216;SDS011;63800;51.972;5.682;2023-05-02T13:27:17;5.72;;;3.25;;
75216;SDS011;63800;51.972;5.682;2023-05-02T13:29:46;6.97;;;3.20;;
75216;SDS011;63800;51.972;5.682;2023-05-02T13:32:13;5.07;;;3.15;;
75216;SDS011;63800;51.972;5.682;2023-05-02T13:34:38;9.43;;;3.20;;
75216;SDS011;63800;51.972;5.682;2023-05-02T13:37:04;7.10;;;3.60;;
75216;SDS011;63800;51.972;5.682;2023-05-02T13:39:29;8.57;;;3.88;;
75216;SDS011;63800;51.972;5.682;2023-05-02T13:41:55;6.70;;;3.45;;
75216;SDS011;63800;51.972;5.682;2023-05-02T13:44:20;6.10;;;2.95;;
75216;SDS011;63800;51.972;5.682;2023-05-02T13:46:46;5.82;;;3.20;;
75216;SDS011;63800;51.972;5.682;2023-05-02T13:49:11;6.70;;;3.30;;
75216;SDS011;63800;51.972;5.682;2023-05-02T13:51:37;6.57;;;3.30;;
75216;SDS011;63800;51.972;5.682;2023-05-02T13:54:02;8.15;;;3.00;;
75216;SDS011;63800;51.972;5.682;2023-05-02T13:56:28;7.18;;;3.25;;
75216;SDS011;63800;51.972;5.682;2023-05-02T13:58:53;7.13;;;3.35;;
75216;SDS011;63800;51.972;5.682;2023-05-02T14:01:19;7.05;;;2.95;;
75216;SDS011;63800;51.972;5.682;2023-05-02T14:03:44;6.45;;;3.67;;
75216;SDS011;63800;51.972;5.682;2023-05-02T14:06:10;5.32;;;3.13;;
75216;SDS011;63800;51.972;5.682;2023-05-02T14:08:35;6.50;;;3.17;;
75216;SDS011;63800;51.972;5.682;2023-05-02T14:11:01;6.97;;;3.13;;
75216;SDS011;63800;51.972;5.682;2023-05-02T14:13:27;6.22;;;3.28;;
75216;SDS011;63800;51.972;5.682;2023-05-02T14:15:52;7.07;;;3.33;;
75216;SDS011;63800;51.972;5.682;2023-05-02T14:18:18;5.55;;;3.10;;
75216;SDS011;63800;51.972;5.682;2023-05-02T14:20:44;5.35;;;3.28;;
75216;SDS011;63800;51.972;5.682;2023-05-02T14:23:09;5.95;;;3.55;;
75216;SDS011;63800;51.972;5.682;2023-05-02T14:25:35;5.78;;;2.80;;
75216;SDS011;63800;51.972;5.682;2023-05-02T14:28:01;8.73;;;3.40;;
75216;SDS011;63800;51.972;5.682;2023-05-02T14:30:27;8.45;;;3.50;;
75216;SDS011;63800;51.972;5.682;2023-05-02T14:32:53;6.10;;;3.00;;
75216;SDS011;63800;51.972;5.682;2023-05-02T14:35:19;5.55;;;3.42;;
75216;SDS011;63800;51.972;5.682;2023-05-02T14:37:45;4.90;;;2.80;;
75216;SDS011;63800;51.972;5.682;2023-05-02T14:40:11;6.85;;;3.40;;
75216;SDS011;63800;51.972;5.682;2023-05-02T14:42:38;5.47;;;2.88;;
75216;SDS011;63800;51.972;5.682;2023-05-02T14:45:04;6.82;;;3.80;;
75216;SDS011;63800;51.972;5.682;2023-05-02T14:47:30;8.02;;;3.60;;
75216;SDS011;63800;51.972;5.682;2023-05-02T14:49:56;5.38;;;3.00;;
75216;SDS011;63800;51.972;5.682;2023-05-02T14:52:21;5.53;;;3.08;;
75216;SDS011;63800;51.972;5.682;2023-05-02T14:54:47;7.72;;;3.50;;
75216;SDS011;63800;51.972;5.682;2023-05-02T14:57:12;5.50;;;3.13;;
75216;SDS011;63800;51.972;5.682;2023-05-02T14:59:38;8.02;;;3.53;;
75216;SDS011;63800;51.972;5.682;2023-05-02T15:02:04;6.82;;;3.20;;
75216;SDS011;63800;51.972;5.682;2023-05-02T15:04:29;8.40;;;3.45;;
75216;SDS011;63800;51.972;5.682;2023-05-02T15:06:55;5.50;;;3.03;;
75216;SDS011;63800;51.972;5.682;2023-05-02T15:09:22;5.45;;;3.40;;
75216;SDS011;63800;51.972;5.682;2023-05-02T15:11:50;7.03;;;3.55;;
75216;SDS011;63800;51.972;5.682;2023-05-02T15:14:19;5.97;;;3.00;;
75216;SDS011;63800;51.972;5.682;2023-05-02T15:16:45;6.68;;;3.00;;
75216;SDS011;63800;51.972;5.682;2023-05-02T15:19:10;5.18;;;3.22;;
75216;SDS011;63800;51.972;5.682;2023-05-02T15:21:36;6.28;;;2.88;;
75216;SDS011;63800;51.972;5.682;2023-05-02T15:24:01;5.43;;;3.08;;